Aviation Digital Data Service (ADDS)

Output produced by TAFs form (1740 UTC 31 January 2015)
found at http://aviationweather.gov/adds/tafs/
 
KGJT 311739Z 3118/0118 32005KT P6SM -RA FEW008 BKN017 OVC020 
     FM312100 33006KT P6SM VCSH SCT025 BKN050 
     FM010100 03005KT P6SM SCT050 BKN070 
     FM010600 09005KT P6SM VCFG SCT010 SCT070 
     FM011400 VRB03KT P6SM SCT070